Time;durP1;ratioP1;P1;durP2;ratioP2;P2;SDS_P1;SDS_P2;PMS_P1;PMS_P2;Temp;Humidity;BMP_temperature;BMP_pressure;BME280_temperature;BME280_humidity;BME280_pressure;Samples;Min_cycle;Max_cycle;Signal;HPM_P1;HPM_P2
2022/08/31 00:07:53;;;;;;;3.60;3.10;;;;;;;18.69;100.00;100695.11;2602067;90;21735;-90
2022/08/31 00:11:54;;;;;;;4.37;3.58;;;;;;;18.69;99.84;100695.60;2575518;89;21188;-90
2022/08/31 00:15:55;;;;;;;5.78;3.47;;;;;;;18.69;100.00;100689.72;2605938;89;21637;-90
2022/08/31 00:19:57;;;;;;;4.95;3.30;;;;;;;18.70;100.00;100688.70;2607444;88;21914;-90
2022/08/31 00:23:59;;;;;;;4.28;3.22;;;;;;;18.69;99.78;100689.72;2593475;89;21054;-90
2022/08/31 00:28:01;;;;;;;5.00;4.00;;;;;;;18.68;99.33;100687.19;2603142;90;21404;-90
2022/08/31 00:32:02;;;;;;;2.72;2.52;;;;;;;18.59;99.37;100687.69;2586029;89;21127;-90
2022/08/31 00:36:08;;;;;;;4.00;3.30;;;;;;;18.59;99.16;100690.91;2612711;89;21059;-90
2022/08/31 00:40:10;;;;;;;8.13;3.45;;;;;;;18.56;98.94;100695.59;2585174;90;21130;-91
2022/08/31 00:44:13;;;;;;;4.67;3.15;;;;;;;18.54;98.78;100691.41;2601252;89;21103;-91
2022/08/31 00:48:14;;;;;;;3.08;2.70;;;;;;;18.55;98.26;100698.47;2542208;90;21042;-89
2022/08/31 00:52:21;;;;;;;5.53;4.20;;;;;;;18.49;98.60;100689.73;2604701;90;21647;-90
2022/08/31 00:56:23;;;;;;;4.97;3.17;;;;;;;18.45;98.88;100691.05;2598563;89;21077;-89
2022/08/31 01:00:27;;;;;;;3.50;2.85;;;;;;;18.44;99.04;100689.37;2618582;89;21109;-90
2022/08/31 01:04:29;;;;;;;10.60;3.98;;;;;;;18.43;99.33;100694.42;2542069;90;21147;-90
2022/08/31 01:08:30;;;;;;;4.17;3.17;;;;;;;18.41;99.66;100688.70;2544647;90;21637;-91
2022/08/31 01:12:32;;;;;;;3.83;3.05;;;;;;;18.43;100.00;100690.38;2580167;90;21101;-90
2022/08/31 01:16:41;;;;;;;3.05;2.72;;;;;;;18.34;100.00;100686.34;2607652;89;21208;-90
2022/08/31 01:21:23;;;;;;;7.58;3.25;;;;;;;18.38;100.00;100689.56;2609471;90;21089;-90
2022/08/31 01:25:25;;;;;;;4.17;2.52;;;;;;;18.27;100.00;100683.97;2612510;89;21688;-90
2022/08/31 01:29:26;;;;;;;3.22;2.55;;;;;;;18.24;100.00;100693.73;2613648;89;21062;-90
2022/08/31 01:33:29;;;;;;;4.45;3.42;;;;;;;18.30;100.00;100689.05;2560257;90;21181;-90
2022/08/31 01:37:30;;;;;;;3.35;3.05;;;;;;;18.31;100.00;100679.09;2537849;90;21543;-90
2022/08/31 01:41:32;;;;;;;4.10;3.08;;;;;;;18.35;100.00;100689.38;2528637;91;21120;-90
2022/08/31 01:45:33;;;;;;;3.85;3.10;;;;;;;18.33;100.00;100690.05;2544967;88;21037;-90
2022/08/31 01:49:35;;;;;;;4.33;3.75;;;;;;;18.30;100.00;100697.13;2566387;91;21099;-91
2022/08/31 01:53:37;;;;;;;2.90;2.67;;;;;;;18.33;100.00;100701.31;2565101;89;21127;-90
2022/08/31 01:57:38;;;;;;;3.83;2.80;;;;;;;18.32;100.00;100702.32;2533450;90;21574;-90
2022/08/31 02:01:43;;;;;;;5.80;2.42;;;;;;;18.11;100.00;100700.46;2544496;90;21085;-90
2022/08/31 02:05:44;;;;;;;4.80;4.08;;;;;;;18.05;100.00;100692.20;2567370;89;21102;-90
2022/08/31 02:09:46;;;;;;;4.67;3.08;;;;;;;18.09;100.00;100694.40;2535229;90;21122;-90
2022/08/31 02:13:47;;;;;;;4.28;2.67;;;;;;;18.07;100.00;100696.91;2547232;91;21089;-90
2022/08/31 02:17:48;;;;;;;3.45;3.08;;;;;;;18.05;100.00;100693.02;2558018;90;21626;-90
2022/08/31 02:21:50;;;;;;;3.50;2.95;;;;;;;17.94;100.00;100693.32;2529054;90;21130;-90
2022/08/31 02:25:51;;;;;;;3.77;3.00;;;;;;;17.88;100.00;100696.16;2549759;90;21047;-91
2022/08/31 02:29:53;;;;;;;5.47;3.20;;;;;;;17.88;100.00;100690.78;2578741;90;21123;-91
2022/08/31 02:33:54;;;;;;;3.52;2.47;;;;;;;17.91;100.00;100692.31;2527691;91;21158;-91
2022/08/31 02:37:55;;;;;;;3.62;2.58;;;;;;;17.92;100.00;100689.44;2565528;91;21120;-90
2022/08/31 02:41:56;;;;;;;4.22;3.27;;;;;;;17.96;100.00;100685.92;2551304;91;21083;-91
2022/08/31 02:45:57;;;;;;;5.83;2.52;;;;;;;18.04;100.00;100687.30;2572528;90;21076;-91
2022/08/31 02:50:02;;;;;;;3.52;3.22;;;;;;;18.13;100.00;100691.71;2584103;90;21194;-90
2022/08/31 02:54:04;;;;;;;7.50;3.07;;;;;;;18.21;100.00;100693.58;2528872;91;21169;-91
2022/08/31 02:58:06;;;;;;;4.10;2.20;;;;;;;18.27;100.00;100687.52;2548175;91;21131;-93
2022/08/31 03:02:07;;;;;;;3.05;2.45;;;;;;;18.22;100.00;100688.53;2542141;90;21885;-91
2022/08/31 03:06:08;;;;;;;7.20;4.03;;;;;;;18.14;100.00;100688.50;2553886;91;21125;-91
2022/08/31 03:10:12;;;;;;;7.10;3.50;;;;;;;18.12;100.00;100683.30;2534153;90;21617;-92
2022/08/31 03:14:14;;;;;;;3.50;2.80;;;;;;;18.06;100.00;100679.90;2564802;89;21613;-89
2022/08/31 03:18:15;;;;;;;5.53;2.87;;;;;;;18.01;100.00;100679.53;2578626;89;21113;-88
2022/08/31 03:22:16;;;;;;;3.17;2.52;;;;;;;18.05;100.00;100679.56;2586766;90;21088;-92
2022/08/31 03:26:17;;;;;;;6.72;3.05;;;;;;;18.07;100.00;100682.93;2578363;89;21081;-95
2022/08/31 03:30:21;;;;;;;6.70;3.90;;;;;;;18.16;100.00;100678.92;2575543;89;21114;-91
2022/08/31 03:34:23;;;;;;;3.20;2.70;;;;;;;18.22;100.00;100679.59;2639926;87;21126;-91
2022/08/31 03:38:24;;;;;;;5.22;3.30;;;;;;;18.17;100.00;100675.22;2616466;88;21128;-92
2022/08/31 03:42:26;;;;;;;4.83;2.87;;;;;;;18.16;100.00;100673.53;2598666;88;21018;-91
2022/08/31 03:46:31;;;;;;;3.75;2.90;;;;;;;18.24;100.00;100676.23;2628290;87;21149;-90
2022/08/31 03:50:34;;;;;;;4.30;3.90;;;;;;;18.27;100.00;100679.92;2618029;88;21375;-91
2022/08/31 03:54:35;;;;;;;13.40;4.17;;;;;;;18.25;100.00;100680.60;2619770;88;21079;-91
2022/08/31 03:58:37;;;;;;;7.03;2.72;;;;;;;18.28;100.00;100684.33;2606509;88;21078;-91
2022/08/31 04:02:39;;;;;;;7.78;2.77;;;;;;;18.23;100.00;100684.83;2647633;88;21078;-87
2022/08/31 04:06:43;;;;;;;6.95;3.40;;;;;;;18.19;100.00;100685.31;2627069;87;21094;-87
2022/08/31 04:10:48;;;;;;;4.85;2.83;;;;;;;18.08;100.00;100686.48;2631908;88;21069;-88
2022/08/31 04:14:49;;;;;;;4.35;3.40;;;;;;;18.05;100.00;100691.67;2642758;87;21100;-89
2022/08/31 04:18:52;;;;;;;3.72;3.08;;;;;;;17.97;100.00;100690.30;2642197;88;21138;-88
2022/08/31 04:22:53;;;;;;;5.40;3.87;;;;;;;17.83;100.00;100689.09;2637547;87;21051;-88
2022/08/31 04:26:55;;;;;;;4.90;3.25;;;;;;;17.69;100.00;100695.95;2595014;88;21042;-88
2022/08/31 04:30:56;;;;;;;4.10;2.90;;;;;;;17.54;100.00;100699.73;2624638;88;21077;-88
2022/08/31 04:34:57;;;;;;;4.53;3.95;;;;;;;17.49;100.00;100698.89;2608055;88;21057;-90
2022/08/31 04:39:02;;;;;;;7.28;3.52;;;;;;;17.44;100.00;100705.23;2611932;88;21253;-88
2022/08/31 04:43:03;;;;;;;5.17;3.12;;;;;;;17.45;100.00;100700.19;2641162;87;21050;-88
2022/08/31 04:47:05;;;;;;;3.52;2.98;;;;;;;17.53;100.00;100705.63;2656992;88;21110;-88
2022/08/31 04:51:14;;;;;;;4.87;4.10;;;;;;;17.59;100.00;100708.66;2635843;86;21145;-88
2022/08/31 04:55:16;;;;;;;5.03;3.70;;;;;;;17.66;100.00;100703.83;2610993;88;21161;-88
2022/08/31 04:59:17;;;;;;;4.47;3.55;;;;;;;17.77;100.00;100708.06;2576223;90;21133;-88
2022/08/31 05:03:19;;;;;;;4.08;3.00;;;;;;;17.89;100.00;100711.81;2565368;90;21224;-88
2022/08/31 05:07:21;;;;;;;5.60;3.87;;;;;;;17.93;100.00;100713.99;2628459;89;21614;-88
2022/08/31 05:11:23;;;;;;;6.83;3.25;;;;;;;17.99;100.00;100712.50;2629155;88;21134;-88
2022/08/31 05:15:25;;;;;;;3.75;3.37;;;;;;;18.04;100.00;100720.95;2658472;88;21034;-88
2022/08/31 05:19:27;;;;;;;6.78;3.35;;;;;;;18.09;100.00;100721.80;2611403;88;21114;-88
2022/08/31 05:23:29;;;;;;;4.97;3.77;;;;;;;18.11;100.00;100736.80;2617026;88;21754;-88
2022/08/31 05:27:30;;;;;;;6.10;4.35;;;;;;;18.12;100.00;100738.97;2642238;87;21109;-88
2022/08/31 05:31:32;;;;;;;4.42;3.47;;;;;;;18.09;100.00;100744.20;2678380;87;21738;-88
2022/08/31 05:35:34;;;;;;;4.10;3.02;;;;;;;18.08;100.00;100738.48;2625249;87;21034;-88
2022/08/31 05:39:36;;;;;;;4.67;3.83;;;;;;;17.99;100.00;100753.73;2622742;87;31399;-88
2022/08/31 05:43:39;;;;;;;4.62;3.05;;;;;;;17.98;100.00;100744.46;2621659;88;21155;-88
2022/08/31 05:47:40;;;;;;;4.72;3.40;;;;;;;17.93;100.00;100743.59;2577073;88;21034;-88
2022/08/31 05:51:42;;;;;;;4.72;3.58;;;;;;;17.89;100.00;100744.11;2608753;88;21660;-88
2022/08/31 05:55:43;;;;;;;5.45;3.65;;;;;;;17.86;100.00;100758.72;2614071;89;21110;-88
2022/08/31 05:59:44;;;;;;;9.23;5.40;;;;;;;17.94;100.00;100757.39;2613706;87;21081;-88
2022/08/31 06:03:46;;;;;;;3.30;3.00;;;;;;;17.94;100.00;100764.12;2656045;87;21567;-88
2022/08/31 06:07:48;;;;;;;6.30;3.42;;;;;;;17.98;100.00;100768.68;2626719;88;21162;-89
2022/08/31 06:11:50;;;;;;;6.53;3.70;;;;;;;18.01;100.00;100772.91;2614800;87;21105;-88
2022/08/31 06:15:52;;;;;;;6.50;4.15;;;;;;;18.04;100.00;100778.81;2666432;88;21090;-88
2022/08/31 06:19:54;;;;;;;4.58;3.98;;;;;;;18.12;100.00;100792.32;2625071;87;21160;-88
2022/08/31 06:23:58;;;;;;;4.55;4.05;;;;;;;18.18;100.00;100794.88;2609082;88;21084;-88
2022/08/31 06:28:01;;;;;;;4.37;3.27;;;;;;;18.21;100.00;100793.68;2623566;88;21768;-88
2022/08/31 06:32:06;;;;;;;4.83;3.60;;;;;;;18.24;100.00;100790.66;2660668;87;21134;-88
2022/08/31 06:36:13;;;;;;;4.50;3.70;;;;;;;18.31;100.00;100798.92;2624849;87;21093;-88
2022/08/31 06:40:14;;;;;;;4.72;4.05;;;;;;;18.34;100.00;100802.14;2658091;87;21644;-88
2022/08/31 06:44:15;;;;;;;6.97;3.80;;;;;;;18.40;100.00;100804.17;2655727;87;21110;-89
2022/08/31 06:48:17;;;;;;;4.45;3.72;;;;;;;18.45;100.00;100801.48;2620625;87;21043;-89
2022/08/31 06:52:19;;;;;;;5.75;4.75;;;;;;;18.52;100.00;100806.56;2614101;88;21093;-88
2022/08/31 06:56:24;;;;;;;5.47;3.52;;;;;;;18.56;100.00;100807.91;2619527;88;21763;-89
2022/08/31 07:00:26;;;;;;;3.63;3.27;;;;;;;18.63;100.00;100807.58;2618124;89;21141;-88
2022/08/31 07:04:34;;;;;;;4.67;4.20;;;;;;;18.69;100.00;100805.58;2631082;88;21058;-88
2022/08/31 07:08:38;;;;;;;4.90;4.40;;;;;;;18.67;100.00;100809.44;2681876;87;21590;-89
2022/08/31 07:12:39;;;;;;;6.97;4.60;;;;;;;18.73;100.00;100811.98;2643078;87;21064;-88
2022/08/31 07:16:42;;;;;;;5.55;4.30;;;;;;;18.78;100.00;100813.17;2624773;87;21211;-89
2022/08/31 07:20:43;;;;;;;3.58;3.27;;;;;;;18.91;100.00;100807.77;2613051;87;21074;-89
2022/08/31 07:24:44;;;;;;;5.12;4.42;;;;;;;19.00;100.00;100809.50;2660201;88;21517;-89
2022/08/31 07:28:51;;;;;;;5.50;4.65;;;;;;;19.08;100.00;100822.97;2592819;89;21090;-89
2022/08/31 07:32:50;;;;;;;4.05;3.67;;;;;;;19.11;100.00;100818.58;2601470;89;21111;-88
2022/08/31 07:45:37;;;;;;;6.00;4.60;;;;;;;19.37;100.00;100817.56;2547229;90;21290;-89
2022/08/31 07:49:49;;;;;;;6.10;3.27;;;;;;;19.40;100.00;100817.22;2568901;90;21120;-89
2022/08/31 07:53:46;;;;;;;5.22;2.80;;;;;;;19.41;100.00;100820.25;2554545;90;21167;-88
2022/08/31 07:57:49;;;;;;;8.25;3.30;;;;;;;19.43;100.00;100828.16;2525904;90;21681;-89
2022/08/31 08:01:54;;;;;;;3.50;2.87;;;;;;;19.47;100.00;100828.17;2549441;90;21553;-89
2022/08/31 08:05:54;;;;;;;3.72;2.77;;;;;;;19.51;100.00;100834.05;2551858;90;21098;-89
2022/08/31 08:09:56;;;;;;;4.53;2.80;;;;;;;19.54;100.00;100834.55;2568927;90;21140;-88
2022/08/31 08:13:57;;;;;;;4.33;3.75;;;;;;;19.58;99.80;100843.65;2562366;91;21230;-89
2022/08/31 08:17:59;;;;;;;4.60;2.90;;;;;;;19.52;98.95;100845.17;2615680;88;21621;-89
2022/08/31 08:22:02;;;;;;;4.05;3.17;;;;;;;19.55;99.96;100842.98;2644848;88;21038;-89
2022/08/31 08:26:09;;;;;;;3.62;2.92;;;;;;;19.60;99.32;100849.22;2625257;87;21180;-89
2022/08/31 08:30:13;;;;;;;5.33;3.10;;;;;;;19.62;99.21;100844.98;2599206;89;21065;-89
2022/08/31 08:34:14;;;;;;;7.55;2.87;;;;;;;19.70;98.48;100850.37;2611073;89;21133;-89
2022/08/31 08:38:15;;;;;;;5.00;2.95;;;;;;;19.74;98.04;100854.41;2575389;90;22548;-89
2022/08/31 08:42:19;;;;;;;4.95;3.20;;;;;;;19.81;98.04;100852.70;2606922;89;21048;-89
2022/08/31 08:46:38;;;;;;;5.37;3.02;;;;;;;19.94;97.33;100862.15;2547568;90;21169;-89
2022/08/31 08:50:40;;;;;;;4.67;3.05;;;;;;;20.07;97.91;100857.05;2570809;89;21686;-88
2022/08/31 08:54:46;;;;;;;9.95;3.42;;;;;;;20.18;96.78;100854.47;2533089;90;21140;-89
2022/08/31 08:58:48;;;;;;;4.05;3.33;;;;;;;20.24;95.72;100854.25;2543918;91;21148;-89
2022/08/31 09:03:07;;;;;;;2.47;1.75;;;;;;;20.44;95.50;100863.28;2544295;90;21674;-89
2022/08/31 09:07:19;;;;;;;2.60;2.10;;;;;;;20.52;92.51;100862.72;2565517;91;21143;-89
2022/08/31 09:11:26;;;;;;;3.05;1.85;;;;;;;20.58;91.28;100859.83;2533541;91;21619;-89
2022/08/31 09:15:37;;;;;;;2.52;2.33;;;;;;;20.64;90.23;100861.84;2589933;89;21078;-89
2022/08/31 09:24:11;;;;;;;3.60;1.98;;;;;;;20.92;91.89;100859.98;2615329;88;21060;-89
2022/08/31 09:28:14;;;;;;;3.30;2.87;;;;;;;21.00;89.38;100866.34;2573933;90;21649;-89
2022/08/31 09:32:21;;;;;;;2.65;2.05;;;;;;;21.14;89.20;100862.85;2537939;92;21106;-89
2022/08/31 09:36:22;;;;;;;4.87;3.02;;;;;;;21.28;86.77;100858.50;2522880;91;21089;-89
2022/08/31 09:40:40;;;;;;;5.58;2.60;;;;;;;21.43;85.26;100845.03;2641861;87;21153;-88
2022/08/31 09:44:45;;;;;;;3.98;1.82;;;;;;;21.57;85.95;100846.06;2663702;87;20988;-89
2022/08/31 09:48:51;;;;;;;3.35;1.90;;;;;;;21.72;84.26;100833.92;2647408;87;21580;-89
2022/08/31 09:57:54;;;;;;;3.55;2.25;;;;;;;22.02;84.27;100835.28;2620416;88;21121;-89
2022/08/31 10:01:59;;;;;;;3.05;1.57;;;;;;;22.07;81.75;100830.13;2656269;88;21066;-89
2022/08/31 10:06:02;;;;;;;1.70;1.60;;;;;;;22.13;81.97;100826.33;2585316;88;21090;-89
2022/08/31 10:10:12;;;;;;;1.35;0.80;;;;;;;22.21;79.77;100828.95;2619621;87;21644;-89
2022/08/31 10:14:25;;;;;;;1.52;1.37;;;;;;;22.14;78.94;100828.86;2629767;87;21152;-89
2022/08/31 10:18:49;;;;;;;4.47;1.82;;;;;;;22.15;80.25;100824.27;2652191;87;21086;-89
2022/08/31 10:22:55;;;;;;;5.00;1.80;;;;;;;22.14;79.94;100825.30;2627035;88;21165;-89
2022/08/31 10:27:04;;;;;;;2.22;1.62;;;;;;;22.31;79.28;100823.23;2608626;89;21016;-89
2022/08/31 10:31:30;;;;;;;3.77;1.50;;;;;;;22.51;78.14;100820.76;2634308;88;21716;-89
2022/08/31 10:35:56;;;;;;;2.35;1.72;;;;;;;22.77;78.60;100816.63;2642648;87;21031;-89
2022/08/31 10:40:01;;;;;;;;;;;;;;;23.03;77.33;100820.64;2617075;88;21117;-89
2022/08/31 10:44:25;;;;;;;1.10;0.97;;;;;;;23.06;73.86;100822.95;2615858;88;20224;-89
2022/08/31 10:48:27;;;;;;;2.10;1.12;;;;;;;23.05;74.30;100811.25;2630082;88;21949;-89
2022/08/31 10:52:41;;;;;;;1.98;1.07;;;;;;;23.07;74.27;100820.56;2614760;88;21093;-89
2022/08/31 10:56:57;;;;;;;2.42;1.10;;;;;;;22.99;72.06;100813.91;2615821;88;21095;-89
2022/08/31 11:01:24;;;;;;;3.35;1.45;;;;;;;22.87;72.94;100808.16;2625250;88;21050;-89
2022/08/31 11:05:37;;;;;;;6.92;1.47;;;;;;;22.77;71.33;100803.07;2652139;88;21057;-89
2022/08/31 11:10:18;;;;;;;0.90;0.53;;;;;;;22.72;70.72;100798.75;2673488;88;21024;-89
2022/08/31 11:14:48;;;;;;;1.27;0.90;;;;;;;22.75;69.99;100793.80;2623171;87;21188;-89
2022/08/31 11:19:14;;;;;;;3.52;1.42;;;;;;;22.80;71.46;100797.28;2627862;88;21086;-89
2022/08/31 11:23:47;;;;;;;2.23;1.40;;;;;;;22.90;71.18;100796.42;2642658;88;21106;-89
2022/08/31 11:28:11;;;;;;;3.60;1.25;;;;;;;22.93;70.90;100793.31;2643874;88;21115;-89
2022/08/31 11:32:24;;;;;;;1.60;1.25;;;;;;;23.04;71.83;100789.77;2621513;88;21062;-89
2022/08/31 11:36:52;;;;;;;2.75;1.17;;;;;;;23.18;68.14;100787.45;2632105;88;21110;-89
2022/08/31 11:40:59;;;;;;;3.17;1.35;;;;;;;23.31;67.13;100795.41;2659664;88;21208;-89
2022/08/31 11:45:08;;;;;;;1.70;0.90;;;;;;;23.42;64.47;100789.45;2650743;88;21626;-89
2022/08/31 11:49:14;;;;;;;1.45;0.50;;;;;;;23.50;65.88;100790.63;2661468;88;21066;-89
2022/08/31 11:53:33;;;;;;;1.40;0.72;;;;;;;23.64;64.77;100790.72;2642661;89;21098;-89
2022/08/31 11:58:06;;;;;;;2.02;0.72;;;;;;;23.68;64.58;100783.34;2640116;88;21153;-89
2022/08/31 12:02:25;;;;;;;1.37;1.17;;;;;;;23.85;65.75;100780.80;2555175;91;22869;-89
2022/08/31 12:06:36;;;;;;;1.98;0.70;;;;;;;23.89;62.38;100777.98;2534058;91;21106;-88
2022/08/31 12:10:45;;;;;;;1.05;0.70;;;;;;;23.96;62.29;100785.63;2594105;89;21077;-89
2022/08/31 12:15:18;;;;;;;1.45;0.88;;;;;;;24.10;61.77;100777.89;2590602;90;21142;-88
2022/08/31 12:24:05;;;;;;;0.95;0.70;;;;;;;24.28;60.35;100768.86;2557505;91;21136;-88
2022/08/31 12:28:35;;;;;;;2.12;1.62;;;;;;;24.39;62.01;100764.16;2554639;91;21129;-88
2022/08/31 12:32:43;;;;;;;2.50;2.12;;;;;;;24.37;58.51;100757.59;2568183;90;21203;-89
2022/08/31 12:36:45;;;;;;;3.60;2.95;;;;;;;24.36;58.86;100757.79;2538810;90;21160;-88
2022/08/31 12:40:53;;;;;;;1.35;1.20;;;;;;;24.34;60.12;100755.80;2526137;91;21148;-88
2022/08/31 12:44:54;;;;;;;2.10;1.00;;;;;;;24.22;59.86;100744.70;2542146;90;21182;-88
2022/08/31 12:49:04;;;;;;;2.75;0.93;;;;;;;24.30;60.51;100748.56;2539102;91;21225;-88
2022/08/31 12:53:46;;;;;;;1.07;0.60;;;;;;;24.42;60.17;100742.54;2520879;92;21782;-88
2022/08/31 12:57:59;;;;;;;3.33;1.27;;;;;;;24.60;59.63;100741.92;2400014;97;21148;-89
2022/08/31 13:02:00;;;;;;;1.62;0.70;;;;;;;24.77;58.28;100739.14;2373215;97;21202;-89
2022/08/31 13:06:07;;;;;;;1.30;1.20;;;;;;;24.84;58.90;100731.48;2352410;99;21147;-93
2022/08/31 13:10:13;;;;;;;6.65;2.52;;;;;;;24.80;60.36;100736.53;2396392;96;21642;-94
2022/08/31 13:14:21;;;;;;;1.72;0.90;;;;;;;24.78;61.30;100723.12;2370546;97;21772;-95
2022/08/31 13:18:27;;;;;;;1.40;1.22;;;;;;;24.45;60.93;100729.34;2377187;97;21118;-95
2022/08/31 13:22:40;;;;;;;13.05;1.82;;;;;;;24.34;61.70;100724.00;2337813;99;21756;-95
2022/08/31 13:26:44;;;;;;;1.70;0.88;;;;;;;24.17;63.61;100726.78;2357288;98;21152;-94
2022/08/31 13:30:57;;;;;;;3.65;0.80;;;;;;;24.16;63.70;100731.41;2467625;93;21168;-95
2022/08/31 13:35:03;;;;;;;2.77;0.70;;;;;;;24.19;61.72;100725.55;2555472;90;21552;-94
2022/08/31 13:39:30;;;;;;;1.55;1.20;;;;;;;24.33;62.11;100721.51;2551702;89;21139;-95
2022/08/31 13:43:32;;;;;;;1.65;1.20;;;;;;;24.35;61.67;100725.67;2544183;90;21429;-94
2022/08/31 13:47:36;;;;;;;1.62;0.75;;;;;;;24.42;61.38;100729.77;2637562;88;21070;-93
2022/08/31 13:51:40;;;;;;;1.30;0.70;;;;;;;24.40;60.26;100722.34;2617119;88;21138;-93
2022/08/31 13:55:42;;;;;;;1.62;1.25;;;;;;;24.37;59.34;100715.97;2579408;89;21131;-94
2022/08/31 13:59:46;;;;;;;1.35;0.88;;;;;;;24.38;57.42;100716.28;2589061;89;21067;-91
2022/08/31 14:03:57;;;;;;;1.02;0.60;;;;;;;24.37;58.13;100719.53;2601613;89;21097;-95
2022/08/31 14:08:08;;;;;;;2.02;0.85;;;;;;;24.35;57.56;100714.80;2591226;89;21082;-94
2022/08/31 14:12:08;;;;;;;1.47;0.93;;;;;;;24.32;57.22;100715.22;2637078;87;21097;-92
2022/08/31 14:16:15;;;;;;;1.30;0.95;;;;;;;24.32;58.54;100713.86;2616364;89;21105;-96
2022/08/31 14:20:35;;;;;;;2.20;0.82;;;;;;;24.31;58.03;100708.11;2602252;89;21115;-95
2022/08/31 14:24:36;;;;;;;0.90;0.60;;;;;;;24.24;57.73;100714.07;2578745;89;21153;-94
2022/08/31 14:28:41;;;;;;;2.20;0.88;;;;;;;24.26;57.76;100710.62;2573562;89;21657;-94
2022/08/31 14:32:44;;;;;;;0.82;0.80;;;;;;;24.35;58.07;100718.87;2603776;89;21094;-94
2022/08/31 14:36:53;;;;;;;6.60;1.65;;;;;;;24.39;58.50;100712.01;2601485;90;21168;-92
2022/08/31 14:40:55;;;;;;;3.22;0.80;;;;;;;24.25;57.52;100719.82;2596995;89;21496;-94
2022/08/31 14:45:01;;;;;;;0.90;0.70;;;;;;;24.21;55.51;100711.23;2609649;89;21593;-95
2022/08/31 14:49:05;;;;;;;1.15;0.60;;;;;;;24.10;56.81;100709.95;2601142;89;21126;-94
2022/08/31 14:53:09;;;;;;;3.95;1.15;;;;;;;24.01;55.96;100707.09;2629787;86;22291;-90
2022/08/31 14:57:21;;;;;;;2.05;1.15;;;;;;;23.95;58.18;100707.89;2598899;88;21091;-91
2022/08/31 15:01:22;;;;;;;1.12;0.50;;;;;;;23.85;56.48;100706.09;2623272;87;21032;-91
2022/08/31 15:05:24;;;;;;;3.27;0.98;;;;;;;23.84;58.19;100698.45;2572019;89;21627;-91
2022/08/31 15:09:26;;;;;;;1.22;0.93;;;;;;;23.79;57.12;100702.31;2622250;88;21083;-90
2022/08/31 15:13:32;;;;;;;2.65;0.93;;;;;;;23.78;57.30;100697.92;2594427;88;21134;-90
2022/08/31 15:17:37;;;;;;;4.62;1.42;;;;;;;23.78;59.32;100700.13;2546317;90;21125;-91
2022/08/31 15:21:49;;;;;;;1.12;0.85;;;;;;;23.67;55.51;100700.70;2634675;88;21011;-91
2022/08/31 15:25:48;;;;;;;3.00;0.90;;;;;;;23.62;58.30;100697.77;2614268;88;21677;-91
2022/08/31 15:29:52;;;;;;;4.42;1.20;;;;;;;23.55;58.54;100699.09;2656156;87;21096;-91
2022/08/31 15:33:54;;;;;;;2.77;0.80;;;;;;;23.51;59.90;100697.29;2645592;88;21051;-91
2022/08/31 15:38:00;;;;;;;1.95;0.75;;;;;;;23.48;59.06;100699.56;2629263;87;21679;-90
2022/08/31 15:42:07;;;;;;;1.57;0.80;;;;;;;23.37;60.11;100699.61;2628021;87;21170;-91
2022/08/31 15:46:08;;;;;;;3.08;0.90;;;;;;;23.21;58.36;100693.47;2659637;86;21602;-89
2022/08/31 15:50:09;;;;;;;0.47;0.47;;;;;;;23.17;59.70;100693.52;2652355;87;21142;-90
2022/08/31 15:54:12;;;;;;;1.05;0.57;;;;;;;23.05;59.63;100689.17;2612935;89;21638;-91
2022/08/31 15:58:14;;;;;;;1.07;0.60;;;;;;;23.04;62.45;100681.25;2636766;88;21713;-91
2022/08/31 16:02:20;;;;;;;2.47;1.00;;;;;;;22.97;61.54;100682.56;2659230;86;21064;-90
2022/08/31 16:06:26;;;;;;;3.87;1.25;;;;;;;22.93;63.52;100678.58;2627375;88;21036;-89
2022/08/31 16:10:29;;;;;;;14.20;7.08;;;;;;;22.86;62.84;100671.74;2642258;87;21054;-91
2022/08/31 16:14:32;;;;;;;2.72;1.15;;;;;;;22.83;64.53;100670.79;2626782;87;21222;-91
2022/08/31 16:18:33;;;;;;;2.10;1.50;;;;;;;22.76;63.32;100669.88;2614331;88;21095;-91
2022/08/31 16:22:35;;;;;;;5.17;1.40;;;;;;;22.69;64.96;100665.77;2615450;90;21094;-91
2022/08/31 16:26:41;;;;;;;1.25;0.72;;;;;;;22.61;65.09;100662.70;2615855;88;21663;-91
2022/08/31 16:30:43;;;;;;;4.15;1.72;;;;;;;22.56;66.35;100666.50;2628741;87;21157;-92
2022/08/31 16:34:45;;;;;;;3.12;2.22;;;;;;;22.48;66.75;100670.19;2616728;88;21087;-93
2022/08/31 16:38:47;;;;;;;2.85;1.02;;;;;;;22.43;67.49;100670.44;2599245;88;21091;-92
2022/08/31 16:42:49;;;;;;;1.50;1.25;;;;;;;22.36;69.05;100675.80;2592085;88;21127;-93
2022/08/31 16:46:50;;;;;;;1.35;1.10;;;;;;;22.31;69.81;100672.84;2613795;88;21625;-92
2022/08/31 16:50:55;;;;;;;6.78;2.40;;;;;;;22.22;69.62;100675.66;2575191;87;21105;-92
2022/08/31 16:54:56;;;;;;;4.85;2.72;;;;;;;22.09;68.37;100677.73;2616803;87;21098;-94
2022/08/31 16:58:58;;;;;;;6.05;3.85;;;;;;;21.97;67.85;100676.55;2605450;88;21107;-92
2022/08/31 17:03:00;;;;;;;7.50;5.03;;;;;;;21.85;69.09;100678.09;2650413;87;21080;-93
2022/08/31 17:07:03;;;;;;;4.33;2.60;;;;;;;21.69;69.02;100680.81;2619460;88;21705;-92
2022/08/31 17:11:22;;;;;;;3.45;2.10;;;;;;;21.52;70.65;100680.70;2622288;88;21168;-93
2022/08/31 17:15:25;;;;;;;2.20;1.47;;;;;;;21.38;71.02;100682.37;2621728;87;21169;-92
2022/08/31 17:19:25;;;;;;;7.92;4.80;;;;;;;21.20;71.52;100688.17;2614691;87;21647;-93
2022/08/31 17:23:27;;;;;;;6.95;4.35;;;;;;;21.07;72.59;100688.82;2591771;88;21137;-93
2022/08/31 17:27:32;;;;;;;5.70;3.47;;;;;;;20.97;72.61;100689.09;2592396;88;21601;-93
2022/08/31 17:31:40;;;;;;;6.55;2.85;;;;;;;20.88;73.08;100699.15;2656505;87;21081;-93
2022/08/31 17:35:41;;;;;;;7.17;3.47;;;;;;;20.80;73.04;100695.16;2625429;87;21061;-93
2022/08/31 17:39:45;;;;;;;7.12;3.45;;;;;;;20.69;72.93;100698.61;2619017;87;21572;-93
2022/08/31 17:43:47;;;;;;;3.00;1.75;;;;;;;20.63;73.79;100695.27;2661653;86;21091;-93
2022/08/31 17:47:49;;;;;;;3.15;1.85;;;;;;;20.60;74.54;100698.34;2630849;86;21103;-94
2022/08/31 17:51:54;;;;;;;5.25;3.08;;;;;;;20.51;75.20;100712.95;2636215;88;21079;-92
2022/08/31 17:55:56;;;;;;;5.83;2.87;;;;;;;20.41;75.95;100715.37;2658372;86;21705;-93
2022/08/31 17:59:57;;;;;;;4.03;3.60;;;;;;;20.34;76.25;100714.42;2649480;86;21667;-93
2022/08/31 18:04:01;;;;;;;7.75;3.55;;;;;;;20.25;75.94;100715.52;2629517;87;21099;-92
2022/08/31 18:08:03;;;;;;;3.27;2.55;;;;;;;20.19;76.23;100714.36;2632828;87;21203;-94
2022/08/31 18:12:05;;;;;;;9.03;3.25;;;;;;;20.14;76.68;100717.27;2582102;89;21084;-92
2022/08/31 18:16:12;;;;;;;4.85;3.83;;;;;;;20.04;76.92;100721.54;2568671;88;21091;-92
2022/08/31 18:20:14;;;;;;;7.22;4.25;;;;;;;19.92;76.83;100720.58;2616657;88;21206;-94
2022/08/31 18:24:15;;;;;;;6.17;4.00;;;;;;;19.79;77.62;100726.52;2609858;88;21107;-94
2022/08/31 18:28:17;;;;;;;7.75;4.70;;;;;;;19.71;77.23;100727.92;2632950;88;21071;-92
2022/08/31 18:32:22;;;;;;;7.87;4.85;;;;;;;19.64;76.99;100726.92;2620853;87;21111;-92
2022/08/31 18:36:24;;;;;;;7.85;5.33;;;;;;;19.60;77.19;100729.64;2636066;87;21177;-93
2022/08/31 18:49:08;;;;;;;9.25;4.95;;;;;;;19.23;76.22;100732.78;2638821;88;21139;-91
2022/08/31 18:53:09;;;;;;;7.35;4.60;;;;;;;19.13;76.00;100734.84;2618430;88;21653;-90
2022/08/31 18:57:11;;;;;;;8.90;5.22;;;;;;;19.05;76.68;100737.53;2640338;87;21097;-91
2022/08/31 19:01:14;;;;;;;7.72;4.87;;;;;;;18.95;76.37;100742.58;2612594;87;21080;-90
2022/08/31 19:05:16;;;;;;;9.35;4.12;;;;;;;18.90;76.54;100740.91;2623893;88;21163;-91
2022/08/31 19:09:17;;;;;;;14.50;4.55;;;;;;;18.84;76.62;100741.08;2619813;88;21148;-88
2022/08/31 19:13:19;;;;;;;8.73;4.08;;;;;;;18.80;77.50;100744.27;2554812;89;21194;-88
2022/08/31 19:17:22;;;;;;;7.83;3.27;;;;;;;18.78;77.34;100744.94;2615604;88;21777;-89
2022/08/31 19:21:32;;;;;;;7.35;3.40;;;;;;;18.76;77.91;100744.27;2541133;90;21121;-93
2022/08/31 19:25:42;;;;;;;8.63;2.98;;;;;;;18.73;78.28;100745.97;2631043;88;21091;-94
2022/08/31 19:29:44;;;;;;;4.78;3.17;;;;;;;18.70;78.08;100752.03;2633521;88;21103;-96
2022/08/31 19:33:46;;;;;;;7.17;3.47;;;;;;;18.69;78.08;100748.14;2636673;88;21795;-95